createdAt,value
2023-04-10T00:02:11.469Z,70.50
2023-04-10T00:04:42.580Z,68.40
2023-04-10T00:07:14.960Z,70.30
2023-04-10T00:09:45.603Z,70.70
2023-04-10T00:12:17.715Z,65.90
2023-04-10T00:14:48.649Z,65.40
2023-04-10T00:17:20.086Z,64.50
2023-04-10T00:19:50.936Z,65.00
2023-04-10T00:22:22.065Z,64.60
2023-04-10T00:24:54.073Z,61.80
2023-04-10T00:27:25.007Z,59.60
2023-04-10T00:29:55.911Z,60.00
2023-04-10T00:32:26.794Z,60.00
2023-04-10T00:34:59.696Z,60.10
2023-04-10T00:37:31.114Z,57.60
2023-04-10T00:40:01.809Z,61.30
2023-04-10T00:42:32.580Z,60.70
2023-04-10T00:45:03.663Z,59.70
2023-04-10T00:47:35.475Z,59.90
2023-04-10T00:50:07.095Z,60.60
2023-04-10T00:52:37.981Z,60.60
2023-04-10T00:55:10.148Z,58.70
2023-04-10T00:57:41.840Z,58.60
2023-04-10T01:00:12.978Z,58.60
2023-04-10T01:02:44.441Z,58.90
2023-04-10T01:05:16.600Z,58.80
2023-04-10T01:08:05.484Z,58.40
2023-04-10T01:11:01.063Z,58.60
2023-04-10T01:14:18.764Z,56.60
2023-04-10T01:17:12.110Z,55.10
2023-04-10T01:20:02.690Z,55.70
2023-04-10T01:22:45.502Z,56.20
2023-04-10T01:25:48.401Z,56.80
2023-04-10T01:28:43.320Z,55.80
2023-04-10T01:31:22.051Z,59.30
2023-04-10T01:34:01.517Z,57.20
2023-04-10T01:36:39.223Z,56.00
2023-04-10T01:39:11.032Z,57.80
2023-04-10T01:41:45.584Z,56.40
2023-04-10T01:44:18.544Z,59.40
2023-04-10T01:46:53.004Z,55.80
2023-04-10T01:49:24.649Z,55.30
2023-04-10T01:52:01.987Z,54.60
2023-04-10T01:54:38.313Z,54.60
2023-04-10T01:57:10.540Z,54.00
2023-04-10T01:59:42.366Z,53.60
2023-04-10T02:02:16.033Z,54.70
2023-04-10T02:04:50.986Z,51.30
2023-04-10T02:07:33.957Z,51.00
2023-04-10T02:10:33.616Z,50.50
2023-04-10T02:13:10.127Z,53.60
2023-04-10T02:15:47.227Z,53.30
2023-04-10T02:18:21.068Z,52.80
2023-04-10T02:20:53.411Z,49.30
2023-04-10T02:23:25.651Z,51.00
2023-04-10T02:25:58.392Z,53.30
2023-04-10T02:28:29.380Z,56.40
2023-04-10T02:31:00.410Z,54.90
2023-04-10T02:33:31.150Z,55.50
2023-04-10T02:36:03.278Z,54.70
2023-04-10T02:38:34.316Z,53.50
2023-04-10T02:41:05.202Z,52.30
2023-04-10T02:43:35.902Z,53.90
2023-04-10T02:46:06.886Z,51.00
2023-04-10T02:48:37.571Z,53.90
2023-04-10T02:51:09.000Z,53.30
2023-04-10T02:53:39.653Z,51.80
2023-04-10T02:56:11.201Z,52.90
2023-04-10T02:58:42.241Z,53.70
2023-04-10T03:01:13.237Z,52.90
2023-04-10T03:03:44.087Z,52.40
2023-04-10T03:06:15.692Z,48.90
2023-04-10T03:08:46.496Z,52.00
2023-04-10T03:11:17.493Z,54.10
2023-04-10T03:13:50.598Z,52.60
2023-04-10T03:16:21.439Z,54.10
2023-04-10T03:18:52.921Z,53.40
2023-04-10T03:21:24.019Z,55.30
2023-04-10T03:23:56.678Z,54.20
2023-04-10T03:26:28.807Z,55.00
2023-04-10T03:29:00.480Z,55.20
2023-04-10T03:31:31.877Z,55.50
2023-04-10T03:34:02.771Z,52.40
2023-04-10T03:36:33.976Z,54.60
2023-04-10T03:39:05.022Z,55.80
2023-04-10T03:41:36.209Z,53.60
2023-04-10T03:44:07.336Z,55.30
2023-04-10T03:46:39.345Z,56.40
2023-04-10T03:49:11.290Z,55.90
2023-04-10T03:51:43.118Z,54.90
2023-04-10T03:54:13.737Z,56.20
2023-04-10T03:56:45.652Z,56.40
2023-04-10T03:59:17.524Z,56.60
2023-04-10T04:01:48.242Z,56.20
2023-04-10T04:04:20.156Z,55.60
2023-04-10T04:06:52.884Z,55.00
2023-04-10T04:09:23.949Z,56.50
2023-04-10T04:12:14.979Z,54.60
2023-04-10T04:15:04.627Z,55.20
2023-04-10T04:20:45.305Z,54.80
2023-04-10T04:23:16.774Z,54.60
2023-04-10T04:25:47.140Z,54.70
2023-04-10T04:28:19.608Z,54.50
2023-04-10T04:30:54.881Z,55.20
2023-04-10T04:33:25.497Z,53.40
2023-04-10T04:36:02.865Z,57.50
2023-04-10T04:38:36.089Z,56.80
2023-04-10T04:41:28.304Z,56.40
2023-04-10T04:43:58.692Z,58.00
2023-04-10T04:46:29.564Z,56.10
2023-04-10T04:49:00.272Z,55.80
2023-04-10T04:51:48.027Z,56.10
2023-04-10T04:54:19.666Z,55.60
2023-04-10T04:56:59.129Z,55.10
2023-04-10T04:59:37.389Z,55.20
2023-04-10T05:02:08.267Z,55.70
2023-04-10T05:04:42.151Z,55.50
2023-04-10T05:07:15.841Z,57.00
2023-04-10T05:09:47.997Z,56.70
2023-04-10T05:12:19.688Z,56.50
2023-04-10T05:14:51.470Z,55.30
2023-04-10T05:17:23.734Z,56.70
2023-04-10T05:19:54.711Z,56.50
2023-04-10T05:22:27.301Z,56.80
2023-04-10T05:25:00.946Z,57.00
2023-04-10T05:27:33.395Z,55.90
2023-04-10T05:30:05.067Z,55.90
2023-04-10T05:32:37.149Z,57.10
2023-04-10T05:35:09.573Z,56.70
2023-04-10T05:37:40.888Z,56.60
2023-04-10T05:40:13.608Z,56.80
2023-04-10T05:42:45.698Z,56.80
2023-04-10T05:45:17.049Z,57.00
2023-04-10T05:47:49.258Z,57.10
2023-04-10T05:50:20.775Z,57.90
2023-04-10T05:52:53.601Z,57.10
2023-04-10T05:55:25.180Z,58.20
2023-04-10T05:57:57.472Z,59.40
2023-04-10T06:00:28.350Z,58.20
2023-04-10T06:03:00.640Z,58.00
2023-04-10T06:05:31.648Z,57.00
2023-04-10T06:08:02.818Z,56.00
2023-04-10T06:10:33.703Z,57.60
2023-04-10T06:13:04.590Z,58.70
2023-04-10T06:15:35.502Z,58.50
2023-04-10T06:18:07.407Z,58.60
2023-04-10T06:20:38.254Z,58.60
2023-04-10T06:23:09.794Z,59.80
2023-04-10T06:25:40.594Z,59.50
2023-04-10T06:28:11.396Z,59.40
2023-04-10T06:30:42.030Z,60.20
2023-04-10T06:33:13.266Z,59.40
2023-04-10T06:35:45.605Z,59.80
2023-04-10T06:38:17.345Z,60.60
2023-04-10T06:40:48.180Z,59.90
2023-04-10T06:43:20.950Z,60.80
2023-04-10T06:45:51.863Z,60.50
2023-04-10T06:48:22.633Z,60.30
2023-04-10T06:50:53.322Z,60.90
2023-04-10T06:53:24.077Z,60.30
2023-04-10T06:55:54.952Z,59.80
2023-04-10T06:58:26.617Z,61.20
2023-04-10T07:00:57.615Z,60.50
2023-04-10T07:03:28.532Z,60.20
2023-04-10T07:05:59.290Z,60.20
2023-04-10T07:08:32.844Z,60.30
2023-04-10T07:11:03.536Z,61.60
2023-04-10T07:13:34.584Z,62.30
2023-04-10T07:16:05.308Z,63.00
2023-04-10T07:18:37.474Z,63.30
2023-04-10T07:21:16.855Z,63.50
2023-04-10T07:23:48.577Z,64.20
2023-04-10T07:26:21.172Z,63.70
2023-04-10T07:28:52.111Z,62.80
2023-04-10T07:31:23.532Z,63.30
2023-04-10T07:33:54.489Z,63.50
2023-04-10T07:36:26.328Z,65.00
2023-04-10T07:38:58.043Z,63.60
2023-04-10T07:41:28.988Z,64.80
2023-04-10T07:44:00.578Z,64.60
2023-04-10T07:46:32.145Z,65.20
2023-04-10T07:49:03.240Z,65.60
2023-04-10T07:51:33.976Z,66.40
2023-04-10T07:54:05.615Z,65.80
2023-04-10T07:56:36.586Z,65.20
2023-04-10T07:59:08.411Z,66.20
2023-04-10T08:01:39.360Z,66.30
2023-04-10T08:04:10.239Z,66.60
2023-04-10T08:06:41.055Z,65.30
2023-04-10T08:09:11.844Z,66.60
2023-04-10T08:11:42.522Z,66.90
2023-04-10T08:14:18.317Z,68.50
2023-04-10T08:16:49.337Z,66.90
2023-04-10T08:19:20.149Z,66.90
2023-04-10T08:21:50.836Z,67.60
2023-04-10T08:24:23.366Z,67.30
2023-04-10T08:26:55.725Z,68.30
2023-04-10T08:29:27.594Z,67.30
2023-04-10T08:31:58.583Z,68.10
2023-04-10T08:34:30.666Z,68.10
2023-04-10T08:37:01.454Z,68.20
2023-04-10T08:39:32.306Z,68.80
2023-04-10T08:42:04.193Z,68.00
2023-04-10T08:44:34.927Z,68.30
2023-04-10T08:47:06.564Z,68.80
2023-04-10T08:50:13.800Z,67.90
2023-04-10T08:52:48.374Z,68.00
2023-04-10T08:55:20.311Z,69.30
2023-04-10T08:58:00.458Z,68.20
2023-04-10T09:00:37.120Z,68.80
2023-04-10T09:03:13.929Z,69.40
2023-04-10T09:05:45.185Z,69.90
2023-04-10T09:08:18.735Z,69.60
2023-04-10T09:10:49.358Z,68.10
2023-04-10T09:13:37.381Z,66.90
2023-04-10T09:16:09.145Z,66.60
2023-04-10T09:18:53.794Z,66.00
2023-04-10T09:21:26.891Z,68.60
2023-04-10T09:24:03.990Z,67.80
2023-04-10T09:26:37.117Z,67.90
2023-04-10T09:29:09.683Z,69.30
2023-04-10T09:31:42.447Z,72.20
2023-04-10T09:34:17.585Z,72.50
2023-04-10T09:37:00.769Z,72.30
2023-04-10T09:39:46.831Z,70.50
2023-04-10T09:42:18.727Z,71.30
2023-04-10T09:44:50.217Z,68.80
2023-04-10T09:47:23.956Z,67.80
2023-04-10T09:49:59.637Z,70.40
2023-04-10T09:52:32.995Z,70.10
2023-04-10T09:55:06.446Z,68.80
2023-04-10T09:57:38.530Z,69.50
2023-04-10T10:00:30.706Z,70.30
2023-04-10T10:03:04.105Z,69.30
2023-04-10T10:05:36.147Z,71.10
2023-04-10T10:08:09.014Z,71.70
2023-04-10T10:10:44.343Z,71.90
2023-04-10T10:13:19.885Z,71.60
2023-04-10T10:16:01.696Z,72.60
2023-04-10T10:18:47.242Z,72.10
2023-04-10T10:21:19.808Z,71.80
2023-04-10T10:23:56.106Z,73.50
2023-04-10T10:26:27.387Z,73.60
2023-04-10T10:29:03.714Z,74.80
2023-04-10T10:31:41.700Z,75.20
2023-04-10T10:34:13.404Z,74.80
2023-04-10T10:36:44.570Z,75.30
2023-04-10T10:39:36.037Z,77.00
2023-04-10T10:42:25.033Z,76.10
2023-04-10T10:45:34.440Z,77.90
2023-04-10T10:48:05.618Z,77.30
2023-04-10T10:51:06.468Z,79.00
2023-04-10T10:53:48.208Z,78.50
2023-04-10T10:56:40.841Z,78.90
2023-04-10T10:59:11.710Z,78.50
2023-04-10T11:02:05.658Z,78.40
2023-04-10T11:05:05.918Z,78.60
2023-04-10T11:08:05.254Z,78.30
2023-04-10T11:11:07.658Z,79.30
2023-04-10T11:13:43.518Z,79.10
2023-04-10T11:16:29.863Z,79.80
2023-04-10T11:19:15.480Z,80.50
2023-04-10T11:22:10.709Z,79.80
2023-04-10T11:24:59.873Z,80.30
2023-04-10T11:27:47.029Z,80.50
2023-04-10T11:30:29.711Z,81.20
2023-04-10T11:33:02.448Z,82.10
2023-04-10T11:35:34.421Z,82.10
2023-04-10T11:38:15.655Z,81.20
2023-04-10T11:41:06.338Z,81.80
2023-04-10T11:43:37.563Z,82.40
2023-04-10T11:46:09.757Z,82.40
2023-04-10T11:48:40.499Z,83.20
2023-04-10T11:51:15.901Z,83.40
2023-04-10T11:53:46.543Z,82.90
2023-04-10T11:56:23.504Z,82.70
2023-04-10T11:58:57.598Z,83.50
2023-04-10T12:01:28.540Z,82.80
2023-04-10T12:04:00.608Z,82.10
2023-04-10T12:06:31.865Z,82.80
2023-04-10T12:09:24.429Z,82.70
2023-04-10T12:12:14.152Z,83.00
2023-04-10T12:15:04.632Z,82.90
2023-04-10T12:17:37.504Z,85.20
2023-04-10T12:20:08.444Z,85.50
2023-04-10T12:22:38.969Z,85.10
2023-04-10T12:25:14.173Z,83.40
2023-04-10T12:27:54.590Z,85.20
2023-04-10T12:30:25.609Z,85.00
2023-04-10T12:32:56.437Z,83.80
2023-04-10T12:35:47.658Z,85.20
2023-04-10T12:38:25.820Z,83.80
2023-04-10T12:41:06.134Z,83.70
2023-04-10T12:43:39.201Z,83.30
2023-04-10T12:46:13.960Z,83.50
2023-04-10T12:48:44.673Z,84.60
2023-04-10T12:51:15.470Z,85.00
2023-04-10T12:53:51.354Z,85.90
2023-04-10T12:56:22.548Z,84.20
2023-04-10T12:59:08.889Z,86.20
2023-04-10T13:01:43.844Z,85.30
2023-04-10T13:04:14.286Z,85.00
2023-04-10T13:06:56.396Z,86.30
2023-04-10T13:09:27.023Z,84.60
2023-04-10T13:11:58.919Z,85.60
2023-04-10T13:14:31.512Z,84.60
2023-04-10T13:17:02.389Z,85.60
2023-04-10T13:19:33.100Z,86.10
2023-04-10T13:22:04.370Z,86.40
2023-04-10T13:24:36.513Z,87.40
2023-04-10T13:27:08.619Z,86.20
2023-04-10T13:29:48.543Z,87.90
2023-04-10T13:32:19.358Z,87.90
2023-04-10T13:34:50.260Z,87.10
2023-04-10T13:37:22.547Z,86.80
2023-04-10T13:39:53.450Z,87.30
2023-04-10T13:42:24.268Z,87.80
2023-04-10T13:44:55.096Z,87.30
2023-04-10T13:47:25.794Z,86.70
2023-04-10T13:49:56.747Z,87.30
2023-04-10T13:52:27.556Z,86.30
2023-04-10T13:54:58.528Z,87.60
2023-04-10T13:57:29.622Z,87.80
2023-04-10T14:00:00.966Z,88.40
2023-04-10T14:02:32.137Z,90.10
2023-04-10T14:05:03.230Z,88.30
2023-04-10T14:07:35.241Z,87.80
2023-04-10T14:10:06.438Z,87.30
2023-04-10T14:12:38.366Z,88.10
2023-04-10T14:15:09.963Z,88.80
2023-04-10T14:17:42.005Z,90.20
2023-04-10T14:20:16.322Z,89.50
2023-04-10T14:22:47.726Z,88.40
2023-04-10T14:25:18.937Z,88.80
2023-04-10T14:27:50.146Z,89.70
2023-04-10T14:30:21.120Z,88.60
2023-04-10T14:32:51.899Z,89.90
2023-04-10T14:35:22.954Z,88.10
2023-04-10T14:37:53.680Z,88.50
2023-04-10T14:40:24.576Z,89.20
2023-04-10T14:42:55.428Z,88.80
2023-04-10T14:45:27.969Z,89.10
2023-04-10T14:48:00.112Z,88.40
2023-04-10T14:50:37.356Z,88.30
2023-04-10T14:53:08.250Z,88.60
2023-04-10T14:55:39.368Z,89.90
2023-04-10T14:58:11.205Z,88.50
2023-04-10T15:00:43.028Z,90.10
2023-04-10T15:03:14.127Z,88.40
2023-04-10T15:05:45.165Z,88.50
2023-04-10T15:08:16.965Z,89.00
2023-04-10T15:10:47.872Z,90.90
2023-04-10T15:13:19.072Z,89.80
2023-04-10T15:15:52.893Z,90.40
2023-04-10T15:18:23.586Z,88.90
2023-04-10T15:20:54.800Z,90.30
2023-04-10T15:23:26.948Z,89.20
2023-04-10T15:25:57.828Z,89.30
2023-04-10T15:28:30.385Z,90.30
2023-04-10T15:31:02.415Z,90.40
2023-04-10T15:33:33.420Z,90.20
2023-04-10T15:36:04.601Z,89.20
2023-04-10T15:38:39.038Z,89.90
2023-04-10T15:41:14.282Z,88.70
2023-04-10T15:43:44.999Z,88.70
2023-04-10T15:46:19.041Z,89.30
2023-04-10T15:48:51.491Z,90.40
2023-04-10T15:51:24.439Z,89.50
2023-04-10T15:53:57.381Z,90.00
2023-04-10T15:56:28.901Z,90.00
2023-04-10T15:59:01.806Z,90.10
2023-04-10T16:01:33.095Z,90.70
2023-04-10T16:04:04.019Z,90.70
2023-04-10T16:06:36.404Z,90.20
2023-04-10T16:09:21.952Z,90.30
2023-04-10T16:11:57.611Z,90.20
2023-04-10T16:14:30.543Z,89.80
2023-04-10T16:17:01.296Z,89.90
2023-04-10T16:19:35.450Z,90.50
2023-04-10T16:22:09.605Z,90.20
2023-04-10T16:24:40.244Z,90.30
2023-04-10T16:27:11.441Z,91.00
2023-04-10T16:29:42.527Z,90.30
2023-04-10T16:32:13.236Z,89.50
2023-04-10T16:34:43.933Z,90.00
2023-04-10T16:37:15.019Z,90.50
2023-04-10T16:39:50.832Z,92.00
2023-04-10T16:42:22.468Z,91.30
2023-04-10T16:44:53.644Z,90.30
2023-04-10T16:47:25.563Z,90.30
2023-04-10T16:49:57.264Z,90.10
2023-04-10T16:52:29.773Z,90.30
2023-04-10T16:55:00.584Z,90.60
2023-04-10T16:57:32.401Z,90.60
2023-04-10T17:00:03.166Z,91.00
2023-04-10T17:02:36.232Z,90.40
2023-04-10T17:05:07.332Z,90.10
2023-04-10T17:07:38.191Z,90.50
2023-04-10T17:10:09.800Z,90.50
2023-04-10T17:12:41.171Z,90.80
2023-04-10T17:15:12.591Z,90.50
2023-04-10T17:17:43.538Z,91.00
2023-04-10T17:20:14.871Z,90.50
2023-04-10T17:22:46.171Z,90.30
2023-04-10T17:25:16.959Z,89.90
2023-04-10T17:27:48.002Z,90.80
2023-04-10T17:30:18.742Z,91.60
2023-04-10T17:32:51.523Z,91.30
2023-04-10T17:35:23.801Z,91.50
2023-04-10T17:37:55.671Z,90.60
2023-04-10T17:40:28.298Z,91.20
2023-04-10T17:42:59.073Z,90.70
2023-04-10T17:45:29.699Z,91.00
2023-04-10T17:48:01.449Z,90.80
2023-04-10T17:50:32.924Z,90.80
2023-04-10T17:53:04.959Z,90.80
2023-04-10T17:55:40.612Z,90.30
2023-04-10T17:58:11.509Z,90.60
2023-04-10T18:00:45.505Z,90.30
2023-04-10T18:03:16.476Z,91.00
2023-04-10T18:05:47.426Z,91.30
2023-04-10T18:08:18.403Z,91.40
2023-04-10T18:10:50.598Z,91.10
2023-04-10T18:13:22.085Z,91.30
2023-04-10T18:15:52.810Z,90.40
2023-04-10T18:18:24.730Z,90.30
2023-04-10T18:20:55.395Z,90.90
2023-04-10T18:23:29.012Z,90.30
2023-04-10T18:26:01.733Z,90.80
2023-04-10T18:28:33.287Z,91.80
2023-04-10T18:31:04.520Z,91.70
2023-04-10T18:33:36.391Z,91.30
2023-04-10T18:36:08.941Z,91.20
2023-04-10T18:38:40.871Z,90.60
2023-04-10T18:41:14.717Z,90.80
2023-04-10T18:43:54.200Z,90.60
2023-04-10T18:46:34.305Z,90.60
2023-04-10T18:49:05.699Z,91.20
2023-04-10T18:51:38.552Z,90.60
2023-04-10T18:54:13.486Z,91.20
2023-04-10T18:56:44.540Z,91.10
2023-04-10T18:59:15.311Z,91.00
2023-04-10T19:01:46.114Z,92.00
2023-04-10T19:04:18.183Z,91.40
2023-04-10T19:06:49.005Z,90.70
2023-04-10T19:09:20.696Z,91.30
2023-04-10T19:11:51.640Z,91.40
2023-04-10T19:14:22.639Z,92.00
2023-04-10T19:16:53.277Z,91.70
2023-04-10T19:19:24.203Z,92.00
2023-04-10T19:21:54.853Z,91.40
2023-04-10T19:24:26.845Z,91.40
2023-04-10T19:26:57.838Z,90.80
2023-04-10T19:29:28.522Z,91.70
2023-04-10T19:31:59.292Z,91.10
2023-04-10T19:34:29.988Z,91.50
2023-04-10T19:37:01.574Z,91.10
2023-04-10T19:39:34.502Z,91.00
2023-04-10T19:42:05.588Z,91.20
2023-04-10T19:44:39.428Z,91.50
2023-04-10T19:47:10.192Z,92.70
2023-04-10T19:49:41.029Z,92.20
2023-04-10T19:52:12.107Z,91.30
2023-04-10T19:54:43.971Z,91.70
2023-04-10T19:57:14.763Z,91.70
2023-04-10T19:59:45.688Z,91.70
2023-04-10T20:02:18.836Z,92.10
2023-04-10T20:04:49.654Z,91.60
2023-04-10T20:07:20.483Z,92.80
2023-04-10T20:09:51.132Z,91.80
2023-04-10T20:12:21.756Z,92.00
2023-04-10T20:14:52.681Z,91.80
2023-04-10T20:17:23.884Z,92.00
2023-04-10T20:19:55.467Z,91.80
2023-04-10T20:22:26.828Z,92.00
2023-04-10T20:24:58.623Z,92.30
2023-04-10T20:27:29.508Z,92.30
2023-04-10T20:30:00.150Z,92.60
2023-04-10T20:32:31.004Z,91.50
2023-04-10T20:35:02.678Z,91.10
2023-04-10T20:37:34.969Z,90.90
2023-04-10T20:40:05.736Z,91.30
2023-04-10T20:42:37.456Z,91.90
2023-04-10T20:45:09.595Z,91.40
2023-04-10T20:47:41.500Z,91.10
2023-04-10T20:50:14.277Z,92.20
2023-04-10T20:52:45.929Z,92.30
2023-04-10T20:55:16.581Z,92.00
2023-04-10T20:57:48.413Z,92.40
2023-04-10T21:00:20.513Z,91.70
2023-04-10T21:02:52.526Z,92.50
2023-04-10T21:05:24.429Z,91.60
2023-04-10T21:07:57.339Z,92.20
2023-04-10T21:10:28.478Z,92.00
2023-04-10T21:12:59.158Z,92.00
2023-04-10T21:15:30.049Z,92.20
2023-04-10T21:18:00.825Z,92.90
2023-04-10T21:20:32.453Z,91.80
2023-04-10T21:23:05.647Z,92.40
2023-04-10T21:25:37.892Z,91.50
2023-04-10T21:28:08.713Z,91.40
2023-04-10T21:30:39.359Z,92.20
2023-04-10T21:33:10.231Z,91.50
2023-04-10T21:35:41.180Z,90.80
2023-04-10T21:38:12.241Z,90.90
2023-04-10T21:40:44.256Z,91.10
2023-04-10T21:43:15.931Z,90.70
2023-04-10T21:45:48.049Z,91.20
2023-04-10T21:48:19.021Z,91.10
2023-04-10T21:50:53.293Z,90.80
2023-04-10T21:53:24.880Z,91.30
2023-04-10T21:55:56.685Z,91.50
2023-04-10T21:58:29.265Z,91.20
2023-04-10T22:01:00.004Z,90.80
2023-04-10T22:03:30.927Z,90.40
2023-04-10T22:06:01.807Z,89.40
2023-04-10T22:08:32.658Z,88.60
2023-04-10T22:11:04.518Z,88.90
2023-04-10T22:13:35.385Z,88.70
2023-04-10T22:16:07.638Z,87.60
2023-04-10T22:21:38.762Z,87.90
2023-04-10T22:24:09.566Z,85.80
2023-04-10T22:26:41.595Z,85.20
2023-04-10T22:29:12.583Z,84.20
2023-04-10T22:31:47.048Z,83.60
2023-04-10T22:34:17.845Z,85.10
2023-04-10T22:36:51.591Z,83.00
2023-04-10T22:39:22.794Z,82.50
2023-04-10T22:41:53.665Z,82.40
2023-04-10T22:44:25.969Z,82.70
2023-04-10T22:46:57.052Z,83.20
2023-04-10T22:49:29.741Z,83.60
2023-04-10T22:52:01.872Z,83.40
2023-04-10T22:54:33.775Z,82.60
2023-04-10T22:57:04.888Z,81.40
2023-04-10T22:59:35.548Z,81.80
2023-04-10T23:02:06.788Z,81.60
2023-04-10T23:04:38.849Z,80.80
2023-04-10T23:07:09.607Z,81.50
2023-04-10T23:09:40.324Z,81.90
2023-04-10T23:12:11.300Z,81.70
2023-04-10T23:14:41.992Z,82.00
2023-04-10T23:17:13.257Z,83.00
2023-04-10T23:19:44.629Z,82.20
2023-04-10T23:22:15.604Z,82.20
2023-04-10T23:24:48.010Z,81.70
2023-04-10T23:27:18.894Z,81.40
2023-04-10T23:33:21.608Z,81.10
2023-04-10T23:35:52.365Z,81.20
2023-04-10T23:38:35.262Z,80.70
2023-04-10T23:41:06.027Z,80.60
2023-04-10T23:43:38.699Z,80.80
2023-04-10T23:46:09.655Z,80.40
2023-04-10T23:48:40.403Z,80.70
2023-04-10T23:51:12.624Z,80.20
2023-04-10T23:53:43.531Z,80.50
2023-04-10T23:56:14.301Z,79.70
2023-04-10T23:58:46.135Z,78.90
